Ville De Bordeaux — FZCE — position and weather

sailwx.info

Track history (hours):
 
Tides and Currents Weather Stations Pressure Air Temp Water Temp Dewpoint Dewpoint Depression Visibility Wind Speed Wind Dir Waves Ship Positions

Ville De Bordeaux

Last reported at 2016-Feb-05 23:33 UTC. Time now 2016-Feb-06 20:33 UTC.
Position N 46°04' W 001°56'.

Length 150 m; beam 24 m.

Type: Ship. MMSI: 228084000.

Date/timePositionNaut miles runAvg speedWind from/ knotsBaromVisibWave heightAir tempDewpointWater temp
2016-Feb-05 23:33N 46°04' W 001°56'1615.6
2016-Feb-05 22:32N 46°18' W 002°05'1616.1
2016-Feb-05 21:34N 46°31' W 002°18'3314.6
2016-Feb-05 19:16N 47°01' W 002°40'1115.6
2016-Feb-05 18:34N 47°05' W 002°25'1413.8
2016-Feb-05 17:33N 47°16' W 002°12'2 1.4
2016-Feb-05 16:11N 47°17' W 002°10'0 0.0
2016-Feb-05 13:29N 47°17' W 002°10'0 0.0
2016-Feb-05 12:23N 47°17' W 002°10'0 0.0
2016-Feb-05 11:23N 47°17' W 002°10'0 0.0
2016-Feb-05 10:17N 47°17' W 002°10'0 0.0
2016-Feb-05 09:29N 47°17' W 002°10'0 0.0
2016-Feb-05 08:23N 47°17' W 002°10'0 0.0
2016-Feb-05 07:23N 47°17' W 002°10'0 0.0
2016-Feb-05 06:32N 47°17' W 002°10'0 0.0
2016-Feb-05 05:23N 47°17' W 002°10'0 0.0
2016-Feb-05 04:23N 47°17' W 002°10'0 0.0
2016-Feb-05 03:32N 47°17' W 002°10'0 0.0
2016-Feb-05 02:29N 47°17' W 002°10'0 0.0
2016-Feb-05 01:29N 47°17' W 002°10'0 0.0
2016-Feb-05 00:05N 47°17' W 002°10'0 0.0
2016-Feb-04 23:23N 47°17' W 002°10'0 0.0
2016-Feb-04 22:05N 47°17' W 002°10'0 0.0
2016-Feb-04 21:23N 47°17' W 002°10'0 0.0
2016-Feb-04 20:29N 47°17' W 002°10'0 0.0
2016-Feb-04 19:29N 47°17' W 002°10'0 0.0
2016-Feb-04 18:29N 47°17' W 002°10'0 0.0
2016-Feb-04 16:11N 47°17' W 002°10'0 0.0
2016-Feb-04 15:11N 47°17' W 002°10'0 0.0
2016-Feb-04 14:23N 47°17' W 002°10'0 0.0
2016-Feb-04 13:11N 47°17' W 002°10'0 0.0
2016-Feb-04 12:17N 47°17' W 002°10'0 0.0
2016-Feb-04 11:23N 47°17' W 002°10'0 0.0
2016-Feb-04 08:17N 47°17' W 002°10'0 0.0
2016-Feb-04 07:23N 47°17' W 002°10'0 0.0
2016-Feb-04 04:33N 47°17' W 002°10'5 4.9
2016-Feb-04 03:33N 47°14' W 002°15'1313.4
2016-Feb-04 02:33N 47°04' W 002°28'44215.8
2016-Feb-02 22:32N 41°54' W 009°49'1716.8
2016-Feb-02 21:32N 41°37' W 009°50'1717.1
2016-Feb-02 20:32N 41°20' W 009°50'1717.3
2016-Feb-02 19:32N 41°03' W 009°50'1716.1
2016-Feb-02 18:29N 40°46' W 009°50'1816.6
2016-Feb-02 17:23N 40°27' W 009°50'1315.6
2016-Feb-02 16:32N 40°14' W 009°51'1716.7
2016-Feb-02 15:32N 39°57' W 009°51'1715.9
2016-Feb-02 14:29N 39°41' W 009°52'1516.1
2016-Feb-02 13:32N 39°25' W 009°53'1615.8
2016-Feb-02 12:33N 39°10' W 009°53'1616.2
2016-Feb-02 11:33N 38°53' W 009°52'1616.2
2016-Feb-02 10:33N 38°37' W 009°50'1616.4
2016-Feb-02 09:33N 38°21' W 009°46'1918.0
2016-Feb-02 08:29N 38°03' W 009°40'3317.1
2016-Feb-02 06:32N 37°30' W 009°31'1616.5
2016-Feb-02 05:33N 37°14' W 009°27'1918.4
2016-Feb-02 04:32N 36°57' W 009°20'1515.5
2016-Feb-02 03:32N 36°44' W 009°08'1818.0
2016-Feb-02 02:33N 36°42' W 008°47'1918.7
2016-Feb-02 01:33N 36°40' W 008°23'1918.8
2016-Feb-02 00:33N 36°39' W 008°00'1918.9
2016-Feb-01 23:33N 36°38' W 007°37'106 8.8
2016-Feb-01 11:31N 35°57' W 005°35'8 1.4
2016-Feb-01 05:33N 35°60' W 005°25'  
2016-Jan-30 00:32N 38°45' E 008°45'3210.6
2016-Jan-29 21:32N 38°56' E 009°24'3 0.1
2016-Jan-28 02:23N 38°55' E 009°19'910.3
2016-Jan-28 01:33N 38°52' E 009°09'1010.1
2016-Jan-28 00:32N 38°48' E 008°56'1010.1
2016-Jan-27 23:33N 38°45' E 008°44'111 5.5
2016-Jan-27 03:23N 38°16' E 006°28'1410.4
2016-Jan-27 02:03N 38°12' E 006°11'  
Track history (hours):
 
Tides and Currents Weather Stations Pressure Air Temp Water Temp Dewpoint Dewpoint Depression Visibility Wind Speed Wind Dir Waves Ship Positions

Ville De Bordeaux

Last reported at 2016-Feb-05 23:33 UTC. Time now 2016-Feb-06 20:33 UTC.
Position N 46°04' W 001°56'.

Length 150 m; beam 24 m.

Type: Ship. MMSI: 228084000.

Date/timePositionNaut miles runAvg speedWind from/ knotsBaromVisibWave heightAir tempDewpointWater temp
2016-Feb-05 23:33N 46°04' W 001°56'1615.6
2016-Feb-05 22:32N 46°18' W 002°05'1616.1
2016-Feb-05 21:34N 46°31' W 002°18'3314.6
2016-Feb-05 19:16N 47°01' W 002°40'1115.6
2016-Feb-05 18:34N 47°05' W 002°25'1413.8
2016-Feb-05 17:33N 47°16' W 002°12'2 1.4
2016-Feb-05 16:11N 47°17' W 002°10'0 0.0
2016-Feb-05 13:29N 47°17' W 002°10'0 0.0
2016-Feb-05 12:23N 47°17' W 002°10'0 0.0
2016-Feb-05 11:23N 47°17' W 002°10'0 0.0
2016-Feb-05 10:17N 47°17' W 002°10'0 0.0
2016-Feb-05 09:29N 47°17' W 002°10'0 0.0
2016-Feb-05 08:23N 47°17' W 002°10'0 0.0
2016-Feb-05 07:23N 47°17' W 002°10'0 0.0
2016-Feb-05 06:32N 47°17' W 002°10'0 0.0
2016-Feb-05 05:23N 47°17' W 002°10'0 0.0
2016-Feb-05 04:23N 47°17' W 002°10'0 0.0
2016-Feb-05 03:32N 47°17' W 002°10'0 0.0
2016-Feb-05 02:29N 47°17' W 002°10'0 0.0
2016-Feb-05 01:29N 47°17' W 002°10'0 0.0
2016-Feb-05 00:05N 47°17' W 002°10'0 0.0
2016-Feb-04 23:23N 47°17' W 002°10'0 0.0
2016-Feb-04 22:05N 47°17' W 002°10'0 0.0
2016-Feb-04 21:23N 47°17' W 002°10'0 0.0
2016-Feb-04 20:29N 47°17' W 002°10'0 0.0
2016-Feb-04 19:29N 47°17' W 002°10'0 0.0
2016-Feb-04 18:29N 47°17' W 002°10'0 0.0
2016-Feb-04 16:11N 47°17' W 002°10'0 0.0
2016-Feb-04 15:11N 47°17' W 002°10'0 0.0
2016-Feb-04 14:23N 47°17' W 002°10'0 0.0
2016-Feb-04 13:11N 47°17' W 002°10'0 0.0
2016-Feb-04 12:17N 47°17' W 002°10'0 0.0
2016-Feb-04 11:23N 47°17' W 002°10'0 0.0
2016-Feb-04 08:17N 47°17' W 002°10'0 0.0
2016-Feb-04 07:23N 47°17' W 002°10'0 0.0
2016-Feb-04 04:33N 47°17' W 002°10'5 4.9
2016-Feb-04 03:33N 47°14' W 002°15'1313.4
2016-Feb-04 02:33N 47°04' W 002°28'44215.8
2016-Feb-02 22:32N 41°54' W 009°49'1716.8
2016-Feb-02 21:32N 41°37' W 009°50'1717.1
2016-Feb-02 20:32N 41°20' W 009°50'1717.3
2016-Feb-02 19:32N 41°03' W 009°50'1716.1
2016-Feb-02 18:29N 40°46' W 009°50'1816.6
2016-Feb-02 17:23N 40°27' W 009°50'1315.6
2016-Feb-02 16:32N 40°14' W 009°51'1716.7
2016-Feb-02 15:32N 39°57' W 009°51'1715.9
2016-Feb-02 14:29N 39°41' W 009°52'1516.1
2016-Feb-02 13:32N 39°25' W 009°53'1615.8
2016-Feb-02 12:33N 39°10' W 009°53'1616.2
2016-Feb-02 11:33N 38°53' W 009°52'1616.2
2016-Feb-02 10:33N 38°37' W 009°50'1616.4
2016-Feb-02 09:33N 38°21' W 009°46'1918.0
2016-Feb-02 08:29N 38°03' W 009°40'3317.1
2016-Feb-02 06:32N 37°30' W 009°31'1616.5
2016-Feb-02 05:33N 37°14' W 009°27'1918.4
2016-Feb-02 04:32N 36°57' W 009°20'1515.5
2016-Feb-02 03:32N 36°44' W 009°08'1818.0
2016-Feb-02 02:33N 36°42' W 008°47'1918.7
2016-Feb-02 01:33N 36°40' W 008°23'1918.8
2016-Feb-02 00:33N 36°39' W 008°00'1918.9
2016-Feb-01 23:33N 36°38' W 007°37'106 8.8
2016-Feb-01 11:31N 35°57' W 005°35'8 1.4
2016-Feb-01 05:33N 35°60' W 005°25'  
2016-Jan-30 00:32N 38°45' E 008°45'3210.6
2016-Jan-29 21:32N 38°56' E 009°24'3 0.1
2016-Jan-28 02:23N 38°55' E 009°19'910.3
2016-Jan-28 01:33N 38°52' E 009°09'1010.1
2016-Jan-28 00:32N 38°48' E 008°56'1010.1
2016-Jan-27 23:33N 38°45' E 008°44'111 5.5
2016-Jan-27 03:23N 38°16' E 006°28'1410.4
2016-Jan-27 02:03N 38°12' E 006°11'  

Dump ship's entire track history